sensor_id;sensor_type;location;lat;lon;timestamp;P1;durP1;ratioP1;P2;durP2;ratioP2
40981;SDS011;26708;50.304;19.028;2022-07-10T00:00:21;12.75;;;5.18;;
40981;SDS011;26708;50.304;19.028;2022-07-10T00:03:22;7.68;;;3.95;;
40981;SDS011;26708;50.304;19.028;2022-07-10T00:06:23;11.43;;;4.35;;
40981;SDS011;26708;50.304;19.028;2022-07-10T00:09:25;9.52;;;4.45;;
40981;SDS011;26708;50.304;19.028;2022-07-10T00:12:28;10.45;;;5.20;;
40981;SDS011;26708;50.304;19.028;2022-07-10T00:15:29;14.55;;;5.03;;
40981;SDS011;26708;50.304;19.028;2022-07-10T00:18:32;10.57;;;4.93;;
40981;SDS011;26708;50.304;19.028;2022-07-10T00:21:33;12.93;;;5.13;;
40981;SDS011;26708;50.304;19.028;2022-07-10T00:24:36;10.48;;;4.93;;
40981;SDS011;26708;50.304;19.028;2022-07-10T00:27:37;17.10;;;5.78;;
40981;SDS011;26708;50.304;19.028;2022-07-10T00:30:39;12.90;;;5.40;;
40981;SDS011;26708;50.304;19.028;2022-07-10T00:33:39;9.25;;;5.20;;
40981;SDS011;26708;50.304;19.028;2022-07-10T00:36:40;11.93;;;4.90;;
40981;SDS011;26708;50.304;19.028;2022-07-10T00:39:41;8.95;;;4.68;;
40981;SDS011;26708;50.304;19.028;2022-07-10T00:42:42;8.27;;;5.05;;
40981;SDS011;26708;50.304;19.028;2022-07-10T00:45:43;13.52;;;5.20;;
40981;SDS011;26708;50.304;19.028;2022-07-10T00:48:43;12.85;;;5.13;;
40981;SDS011;26708;50.304;19.028;2022-07-10T00:51:44;10.65;;;4.80;;
40981;SDS011;26708;50.304;19.028;2022-07-10T00:54:46;10.80;;;4.53;;
40981;SDS011;26708;50.304;19.028;2022-07-10T00:57:50;6.50;;;3.90;;
40981;SDS011;26708;50.304;19.028;2022-07-10T01:00:51;13.23;;;6.13;;
40981;SDS011;26708;50.304;19.028;2022-07-10T01:03:52;8.98;;;5.13;;
40981;SDS011;26708;50.304;19.028;2022-07-10T01:06:53;11.10;;;4.75;;
40981;SDS011;26708;50.304;19.028;2022-07-10T01:09:53;8.57;;;4.28;;
40981;SDS011;26708;50.304;19.028;2022-07-10T01:12:54;9.45;;;4.32;;
40981;SDS011;26708;50.304;19.028;2022-07-10T01:15:55;6.25;;;3.85;;
40981;SDS011;26708;50.304;19.028;2022-07-10T01:18:56;8.27;;;3.90;;
40981;SDS011;26708;50.304;19.028;2022-07-10T01:21:59;6.95;;;3.92;;
40981;SDS011;26708;50.304;19.028;2022-07-10T01:25:00;8.82;;;4.40;;
40981;SDS011;26708;50.304;19.028;2022-07-10T01:28:01;11.48;;;4.72;;
40981;SDS011;26708;50.304;19.028;2022-07-10T01:31:01;12.15;;;5.05;;
40981;SDS011;26708;50.304;19.028;2022-07-10T01:34:04;9.73;;;5.25;;
40981;SDS011;26708;50.304;19.028;2022-07-10T01:37:06;9.52;;;4.80;;
40981;SDS011;26708;50.304;19.028;2022-07-10T01:40:07;10.18;;;4.70;;
40981;SDS011;26708;50.304;19.028;2022-07-10T01:43:08;8.48;;;3.92;;
40981;SDS011;26708;50.304;19.028;2022-07-10T01:46:09;10.68;;;4.32;;
40981;SDS011;26708;50.304;19.028;2022-07-10T01:49:13;10.05;;;4.78;;
40981;SDS011;26708;50.304;19.028;2022-07-10T01:52:14;11.32;;;5.47;;
40981;SDS011;26708;50.304;19.028;2022-07-10T01:55:14;10.80;;;5.35;;
40981;SDS011;26708;50.304;19.028;2022-07-10T01:58:15;11.52;;;5.10;;
40981;SDS011;26708;50.304;19.028;2022-07-10T02:01:16;7.15;;;4.32;;
40981;SDS011;26708;50.304;19.028;2022-07-10T02:04:17;9.00;;;4.18;;
40981;SDS011;26708;50.304;19.028;2022-07-10T02:07:36;6.95;;;3.88;;
40981;SDS011;26708;50.304;19.028;2022-07-10T02:10:37;9.32;;;4.30;;
40981;SDS011;26708;50.304;19.028;2022-07-10T02:13:38;10.60;;;4.40;;
40981;SDS011;26708;50.304;19.028;2022-07-10T02:16:39;10.68;;;4.22;;
40981;SDS011;26708;50.304;19.028;2022-07-10T02:19:39;8.27;;;4.13;;
40981;SDS011;26708;50.304;19.028;2022-07-10T02:22:40;10.50;;;4.78;;
40981;SDS011;26708;50.304;19.028;2022-07-10T02:25:41;6.90;;;4.20;;
40981;SDS011;26708;50.304;19.028;2022-07-10T02:28:42;8.70;;;4.28;;
40981;SDS011;26708;50.304;19.028;2022-07-10T02:31:43;8.48;;;4.20;;
40981;SDS011;26708;50.304;19.028;2022-07-10T02:34:44;6.88;;;4.10;;
40981;SDS011;26708;50.304;19.028;2022-07-10T02:37:44;8.43;;;4.30;;
40981;SDS011;26708;50.304;19.028;2022-07-10T02:40:45;7.97;;;3.97;;
40981;SDS011;26708;50.304;19.028;2022-07-10T02:43:49;5.85;;;3.65;;
40981;SDS011;26708;50.304;19.028;2022-07-10T02:46:51;11.13;;;4.10;;
40981;SDS011;26708;50.304;19.028;2022-07-10T02:49:51;5.40;;;3.45;;
40981;SDS011;26708;50.304;19.028;2022-07-10T02:52:52;7.75;;;3.47;;
40981;SDS011;26708;50.304;19.028;2022-07-10T02:55:53;4.88;;;3.15;;
40981;SDS011;26708;50.304;19.028;2022-07-10T02:58:53;7.38;;;3.70;;
40981;SDS011;26708;50.304;19.028;2022-07-10T03:01:54;8.18;;;3.65;;
40981;SDS011;26708;50.304;19.028;2022-07-10T03:04:55;5.88;;;3.30;;
40981;SDS011;26708;50.304;19.028;2022-07-10T03:07:56;5.43;;;2.88;;
40981;SDS011;26708;50.304;19.028;2022-07-10T03:10:56;4.60;;;2.35;;
40981;SDS011;26708;50.304;19.028;2022-07-10T03:13:57;6.78;;;2.42;;
40981;SDS011;26708;50.304;19.028;2022-07-10T03:16:58;5.63;;;2.72;;
40981;SDS011;26708;50.304;19.028;2022-07-10T03:19:59;5.97;;;2.58;;
40981;SDS011;26708;50.304;19.028;2022-07-10T03:22:59;6.80;;;2.40;;
40981;SDS011;26708;50.304;19.028;2022-07-10T03:26:00;7.50;;;2.60;;
40981;SDS011;26708;50.304;19.028;2022-07-10T03:29:01;5.93;;;2.15;;
40981;SDS011;26708;50.304;19.028;2022-07-10T03:32:01;3.88;;;2.22;;
40981;SDS011;26708;50.304;19.028;2022-07-10T03:35:02;3.67;;;2.20;;
40981;SDS011;26708;50.304;19.028;2022-07-10T03:38:03;4.78;;;2.00;;
40981;SDS011;26708;50.304;19.028;2022-07-10T03:41:04;4.93;;;2.30;;
40981;SDS011;26708;50.304;19.028;2022-07-10T03:44:05;8.00;;;2.63;;
40981;SDS011;26708;50.304;19.028;2022-07-10T03:47:06;4.43;;;2.70;;
40981;SDS011;26708;50.304;19.028;2022-07-10T03:50:07;6.15;;;2.65;;
40981;SDS011;26708;50.304;19.028;2022-07-10T03:53:08;6.88;;;2.92;;
40981;SDS011;26708;50.304;19.028;2022-07-10T03:56:09;6.32;;;3.20;;
40981;SDS011;26708;50.304;19.028;2022-07-10T03:59:30;9.80;;;3.50;;
40981;SDS011;26708;50.304;19.028;2022-07-10T04:02:30;7.13;;;3.03;;
40981;SDS011;26708;50.304;19.028;2022-07-10T04:05:32;5.80;;;2.65;;
40981;SDS011;26708;50.304;19.028;2022-07-10T04:08:37;6.82;;;2.80;;
40981;SDS011;26708;50.304;19.028;2022-07-10T04:11:38;4.80;;;3.13;;
40981;SDS011;26708;50.304;19.028;2022-07-10T04:14:39;5.00;;;2.60;;
40981;SDS011;26708;50.304;19.028;2022-07-10T04:17:39;3.20;;;2.25;;
40981;SDS011;26708;50.304;19.028;2022-07-10T04:20:40;3.83;;;2.30;;
40981;SDS011;26708;50.304;19.028;2022-07-10T04:23:41;6.38;;;2.20;;
40981;SDS011;26708;50.304;19.028;2022-07-10T04:26:42;5.30;;;2.35;;
40981;SDS011;26708;50.304;19.028;2022-07-10T04:29:43;6.82;;;2.40;;
40981;SDS011;26708;50.304;19.028;2022-07-10T04:32:44;5.63;;;2.10;;
40981;SDS011;26708;50.304;19.028;2022-07-10T04:35:45;5.82;;;2.05;;
40981;SDS011;26708;50.304;19.028;2022-07-10T04:38:46;2.88;;;1.73;;
40981;SDS011;26708;50.304;19.028;2022-07-10T04:41:46;3.33;;;2.28;;
40981;SDS011;26708;50.304;19.028;2022-07-10T04:44:47;5.93;;;2.13;;
40981;SDS011;26708;50.304;19.028;2022-07-10T04:47:48;4.15;;;2.40;;
40981;SDS011;26708;50.304;19.028;2022-07-10T04:50:48;4.25;;;2.10;;
40981;SDS011;26708;50.304;19.028;2022-07-10T04:53:49;4.00;;;1.73;;
40981;SDS011;26708;50.304;19.028;2022-07-10T04:56:50;4.35;;;1.80;;
40981;SDS011;26708;50.304;19.028;2022-07-10T04:59:51;5.32;;;2.35;;
40981;SDS011;26708;50.304;19.028;2022-07-10T05:02:51;2.53;;;1.73;;
40981;SDS011;26708;50.304;19.028;2022-07-10T05:05:52;2.97;;;1.73;;
40981;SDS011;26708;50.304;19.028;2022-07-10T05:08:53;4.00;;;1.90;;
40981;SDS011;26708;50.304;19.028;2022-07-10T05:11:55;5.80;;;1.73;;
40981;SDS011;26708;50.304;19.028;2022-07-10T05:14:56;2.78;;;1.75;;
40981;SDS011;26708;50.304;19.028;2022-07-10T05:17:57;2.78;;;1.83;;
40981;SDS011;26708;50.304;19.028;2022-07-10T05:20:58;5.45;;;1.52;;
40981;SDS011;26708;50.304;19.028;2022-07-10T05:23:59;2.53;;;1.50;;
40981;SDS011;26708;50.304;19.028;2022-07-10T05:26:59;4.28;;;1.38;;
40981;SDS011;26708;50.304;19.028;2022-07-10T05:30:00;5.22;;;1.60;;
40981;SDS011;26708;50.304;19.028;2022-07-10T05:33:01;2.00;;;1.40;;
40981;SDS011;26708;50.304;19.028;2022-07-10T05:36:02;2.35;;;1.30;;
40981;SDS011;26708;50.304;19.028;2022-07-10T05:39:02;3.65;;;1.88;;
40981;SDS011;26708;50.304;19.028;2022-07-10T05:42:03;5.03;;;1.42;;
40981;SDS011;26708;50.304;19.028;2022-07-10T05:45:04;1.88;;;1.45;;
40981;SDS011;26708;50.304;19.028;2022-07-10T05:48:06;1.88;;;1.10;;
40981;SDS011;26708;50.304;19.028;2022-07-10T05:51:07;3.03;;;1.40;;
40981;SDS011;26708;50.304;19.028;2022-07-10T05:54:08;3.80;;;1.40;;
40981;SDS011;26708;50.304;19.028;2022-07-10T05:57:08;2.58;;;1.13;;
40981;SDS011;26708;50.304;19.028;2022-07-10T06:00:09;1.70;;;1.17;;
40981;SDS011;26708;50.304;19.028;2022-07-10T06:03:13;2.30;;;1.27;;
40981;SDS011;26708;50.304;19.028;2022-07-10T06:06:14;2.65;;;1.42;;
40981;SDS011;26708;50.304;19.028;2022-07-10T06:09:17;4.05;;;1.10;;
40981;SDS011;26708;50.304;19.028;2022-07-10T06:12:18;1.73;;;0.98;;
40981;SDS011;26708;50.304;19.028;2022-07-10T06:15:19;3.40;;;1.10;;
40981;SDS011;26708;50.304;19.028;2022-07-10T06:18:20;6.88;;;1.10;;
40981;SDS011;26708;50.304;19.028;2022-07-10T06:21:21;4.32;;;1.35;;
40981;SDS011;26708;50.304;19.028;2022-07-10T06:24:23;2.20;;;1.00;;
40981;SDS011;26708;50.304;19.028;2022-07-10T06:27:24;1.35;;;0.90;;
40981;SDS011;26708;50.304;19.028;2022-07-10T06:30:24;2.22;;;1.00;;
40981;SDS011;26708;50.304;19.028;2022-07-10T06:33:25;3.55;;;1.00;;
40981;SDS011;26708;50.304;19.028;2022-07-10T06:36:26;2.00;;;1.10;;
40981;SDS011;26708;50.304;19.028;2022-07-10T06:39:27;2.55;;;1.05;;
40981;SDS011;26708;50.304;19.028;2022-07-10T06:42:31;3.95;;;1.00;;
40981;SDS011;26708;50.304;19.028;2022-07-10T06:45:34;1.60;;;0.90;;
40981;SDS011;26708;50.304;19.028;2022-07-10T06:48:35;2.70;;;0.85;;
40981;SDS011;26708;50.304;19.028;2022-07-10T06:51:39;4.93;;;1.23;;
40981;SDS011;26708;50.304;19.028;2022-07-10T06:54:40;1.20;;;0.82;;
40981;SDS011;26708;50.304;19.028;2022-07-10T06:57:41;4.72;;;1.13;;
40981;SDS011;26708;50.304;19.028;2022-07-10T07:00:42;4.35;;;0.85;;
40981;SDS011;26708;50.304;19.028;2022-07-10T07:03:42;2.92;;;1.10;;
40981;SDS011;26708;50.304;19.028;2022-07-10T07:06:43;5.78;;;2.10;;
40981;SDS011;26708;50.304;19.028;2022-07-10T07:09:44;4.05;;;2.20;;
40981;SDS011;26708;50.304;19.028;2022-07-10T07:12:45;2.25;;;1.00;;
40981;SDS011;26708;50.304;19.028;2022-07-10T07:15:46;4.57;;;1.42;;
40981;SDS011;26708;50.304;19.028;2022-07-10T07:19:13;34.90;;;19.02;;
40981;SDS011;26708;50.304;19.028;2022-07-10T07:22:30;4.97;;;2.50;;
40981;SDS011;26708;50.304;19.028;2022-07-10T07:25:49;3.88;;;2.05;;
40981;SDS011;26708;50.304;19.028;2022-07-10T07:28:50;13.43;;;7.05;;
40981;SDS011;26708;50.304;19.028;2022-07-10T07:31:51;7.90;;;4.80;;
40981;SDS011;26708;50.304;19.028;2022-07-10T07:34:55;12.02;;;4.30;;
40981;SDS011;26708;50.304;19.028;2022-07-10T07:37:56;9.32;;;4.78;;
40981;SDS011;26708;50.304;19.028;2022-07-10T07:40:56;4.32;;;2.22;;
40981;SDS011;26708;50.304;19.028;2022-07-10T07:43:57;6.72;;;1.02;;
40981;SDS011;26708;50.304;19.028;2022-07-10T07:46:58;2.20;;;0.90;;
40981;SDS011;26708;50.304;19.028;2022-07-10T07:50:01;4.03;;;1.20;;
40981;SDS011;26708;50.304;19.028;2022-07-10T07:53:04;5.93;;;1.27;;
40981;SDS011;26708;50.304;19.028;2022-07-10T07:56:05;2.85;;;1.23;;
40981;SDS011;26708;50.304;19.028;2022-07-10T07:59:06;5.82;;;1.48;;
40981;SDS011;26708;50.304;19.028;2022-07-10T08:02:07;4.13;;;0.80;;
40981;SDS011;26708;50.304;19.028;2022-07-10T08:05:08;2.63;;;0.93;;
40981;SDS011;26708;50.304;19.028;2022-07-10T08:08:10;3.95;;;0.68;;
40981;SDS011;26708;50.304;19.028;2022-07-10T08:11:10;6.88;;;0.90;;
40981;SDS011;26708;50.304;19.028;2022-07-10T08:14:13;1.45;;;0.43;;
40981;SDS011;26708;50.304;19.028;2022-07-10T08:17:14;4.53;;;0.57;;
40981;SDS011;26708;50.304;19.028;2022-07-10T08:20:15;3.92;;;0.68;;
40981;SDS011;26708;50.304;19.028;2022-07-10T08:23:16;5.35;;;0.80;;
40981;SDS011;26708;50.304;19.028;2022-07-10T08:26:17;3.28;;;0.60;;
40981;SDS011;26708;50.304;19.028;2022-07-10T08:29:18;2.47;;;0.70;;
40981;SDS011;26708;50.304;19.028;2022-07-10T08:32:20;4.57;;;0.70;;
40981;SDS011;26708;50.304;19.028;2022-07-10T08:35:20;4.95;;;0.70;;
40981;SDS011;26708;50.304;19.028;2022-07-10T08:38:21;3.38;;;1.00;;
40981;SDS011;26708;50.304;19.028;2022-07-10T08:41:24;3.95;;;1.05;;
40981;SDS011;26708;50.304;19.028;2022-07-10T08:44:26;2.67;;;0.80;;
40981;SDS011;26708;50.304;19.028;2022-07-10T08:47:29;2.58;;;0.63;;
40981;SDS011;26708;50.304;19.028;2022-07-10T08:50:32;4.18;;;0.90;;
40981;SDS011;26708;50.304;19.028;2022-07-10T08:53:37;4.15;;;0.60;;
40981;SDS011;26708;50.304;19.028;2022-07-10T08:56:39;6.63;;;0.93;;
40981;SDS011;26708;50.304;19.028;2022-07-10T08:59:41;4.28;;;0.70;;
40981;SDS011;26708;50.304;19.028;2022-07-10T09:02:42;6.25;;;0.80;;
40981;SDS011;26708;50.304;19.028;2022-07-10T09:05:42;1.75;;;0.50;;
40981;SDS011;26708;50.304;19.028;2022-07-10T09:12:00;7.32;;;0.85;;
40981;SDS011;26708;50.304;19.028;2022-07-10T09:15:16;2.85;;;0.57;;
40981;SDS011;26708;50.304;19.028;2022-07-10T09:18:20;3.95;;;0.63;;
40981;SDS011;26708;50.304;19.028;2022-07-10T09:21:25;2.30;;;0.45;;
40981;SDS011;26708;50.304;19.028;2022-07-10T09:27:51;2.42;;;0.45;;
40981;SDS011;26708;50.304;19.028;2022-07-10T09:30:55;4.20;;;0.90;;
40981;SDS011;26708;50.304;19.028;2022-07-10T09:33:56;3.67;;;0.77;;
40981;SDS011;26708;50.304;19.028;2022-07-10T09:36:57;2.90;;;0.95;;
40981;SDS011;26708;50.304;19.028;2022-07-10T09:40:05;7.53;;;0.82;;
40981;SDS011;26708;50.304;19.028;2022-07-10T09:43:06;1.30;;;0.40;;
40981;SDS011;26708;50.304;19.028;2022-07-10T09:46:08;3.67;;;0.60;;
40981;SDS011;26708;50.304;19.028;2022-07-10T09:49:12;4.88;;;1.08;;
40981;SDS011;26708;50.304;19.028;2022-07-10T09:52:14;1.58;;;0.40;;
40981;SDS011;26708;50.304;19.028;2022-07-10T09:55:22;1.77;;;0.40;;
40981;SDS011;26708;50.304;19.028;2022-07-10T09:58:25;7.18;;;0.80;;
40981;SDS011;26708;50.304;19.028;2022-07-10T10:01:31;2.22;;;0.43;;
40981;SDS011;26708;50.304;19.028;2022-07-10T10:04:33;1.38;;;0.30;;
40981;SDS011;26708;50.304;19.028;2022-07-10T10:07:36;4.00;;;0.43;;
40981;SDS011;26708;50.304;19.028;2022-07-10T10:10:47;2.92;;;0.55;;
40981;SDS011;26708;50.304;19.028;2022-07-10T10:13:50;1.25;;;0.50;;
40981;SDS011;26708;50.304;19.028;2022-07-10T10:16:51;4.03;;;0.52;;
40981;SDS011;26708;50.304;19.028;2022-07-10T10:19:53;1.70;;;0.40;;
40981;SDS011;26708;50.304;19.028;2022-07-10T10:23:15;5.38;;;0.60;;
40981;SDS011;26708;50.304;19.028;2022-07-10T10:26:23;2.55;;;0.50;;
40981;SDS011;26708;50.304;19.028;2022-07-10T10:29:25;1.63;;;0.47;;
40981;SDS011;26708;50.304;19.028;2022-07-10T10:32:25;2.83;;;0.50;;
40981;SDS011;26708;50.304;19.028;2022-07-10T10:35:43;2.30;;;0.50;;
40981;SDS011;26708;50.304;19.028;2022-07-10T10:41:52;1.50;;;0.50;;
40981;SDS011;26708;50.304;19.028;2022-07-10T10:45:21;4.82;;;0.82;;
40981;SDS011;26708;50.304;19.028;2022-07-10T10:48:30;1.92;;;0.50;;
40981;SDS011;26708;50.304;19.028;2022-07-10T10:55:08;2.00;;;0.60;;
40981;SDS011;26708;50.304;19.028;2022-07-10T10:58:15;2.03;;;0.50;;
40981;SDS011;26708;50.304;19.028;2022-07-10T11:01:28;4.85;;;0.80;;
40981;SDS011;26708;50.304;19.028;2022-07-10T11:04:30;5.57;;;0.60;;
40981;SDS011;26708;50.304;19.028;2022-07-10T11:10:53;2.17;;;0.50;;
40981;SDS011;26708;50.304;19.028;2022-07-10T11:13:56;2.70;;;0.60;;
40981;SDS011;26708;50.304;19.028;2022-07-10T11:16:57;3.03;;;0.60;;
40981;SDS011;26708;50.304;19.028;2022-07-10T11:19:59;2.78;;;0.70;;
40981;SDS011;26708;50.304;19.028;2022-07-10T11:26:18;2.42;;;0.40;;
40981;SDS011;26708;50.304;19.028;2022-07-10T11:29:24;1.75;;;0.50;;
40981;SDS011;26708;50.304;19.028;2022-07-10T11:32:25;4.10;;;0.60;;
40981;SDS011;26708;50.304;19.028;2022-07-10T11:35:26;2.17;;;0.55;;
40981;SDS011;26708;50.304;19.028;2022-07-10T11:38:27;1.98;;;0.47;;
40981;SDS011;26708;50.304;19.028;2022-07-10T11:41:28;2.72;;;0.55;;
40981;SDS011;26708;50.304;19.028;2022-07-10T11:44:29;4.57;;;0.63;;
40981;SDS011;26708;50.304;19.028;2022-07-10T11:47:31;4.70;;;0.80;;
40981;SDS011;26708;50.304;19.028;2022-07-10T11:50:35;1.92;;;0.73;;
40981;SDS011;26708;50.304;19.028;2022-07-10T11:53:38;4.65;;;1.00;;
40981;SDS011;26708;50.304;19.028;2022-07-10T11:56:40;3.35;;;0.50;;
40981;SDS011;26708;50.304;19.028;2022-07-10T11:59:47;2.58;;;0.60;;
40981;SDS011;26708;50.304;19.028;2022-07-10T12:02:53;4.00;;;0.47;;
40981;SDS011;26708;50.304;19.028;2022-07-10T12:05:55;1.48;;;0.65;;
40981;SDS011;26708;50.304;19.028;2022-07-10T12:09:01;3.88;;;1.83;;
40981;SDS011;26708;50.304;19.028;2022-07-10T12:12:09;5.68;;;1.15;;
40981;SDS011;26708;50.304;19.028;2022-07-10T12:15:10;2.20;;;0.68;;
40981;SDS011;26708;50.304;19.028;2022-07-10T12:18:18;3.88;;;0.70;;
40981;SDS011;26708;50.304;19.028;2022-07-10T12:21:21;1.85;;;0.73;;
40981;SDS011;26708;50.304;19.028;2022-07-10T12:24:22;1.52;;;0.50;;
40981;SDS011;26708;50.304;19.028;2022-07-10T12:27:39;3.60;;;0.43;;
40981;SDS011;26708;50.304;19.028;2022-07-10T12:30:41;2.40;;;0.93;;
40981;SDS011;26708;50.304;19.028;2022-07-10T12:33:43;2.30;;;0.50;;
40981;SDS011;26708;50.304;19.028;2022-07-10T12:36:53;4.15;;;0.70;;
40981;SDS011;26708;50.304;19.028;2022-07-10T12:39:53;1.05;;;0.40;;
40981;SDS011;26708;50.304;19.028;2022-07-10T12:43:05;2.30;;;0.77;;
40981;SDS011;26708;50.304;19.028;2022-07-10T12:46:11;2.17;;;0.63;;
40981;SDS011;26708;50.304;19.028;2022-07-10T12:49:21;2.63;;;0.60;;
40981;SDS011;26708;50.304;19.028;2022-07-10T12:52:28;3.28;;;0.57;;
40981;SDS011;26708;50.304;19.028;2022-07-10T12:55:35;2.97;;;0.73;;
40981;SDS011;26708;50.304;19.028;2022-07-10T12:58:43;1.15;;;0.40;;
40981;SDS011;26708;50.304;19.028;2022-07-10T13:01:44;1.45;;;0.50;;
40981;SDS011;26708;50.304;19.028;2022-07-10T13:04:52;1.73;;;0.40;;
40981;SDS011;26708;50.304;19.028;2022-07-10T13:08:10;4.93;;;0.70;;
40981;SDS011;26708;50.304;19.028;2022-07-10T13:11:28;3.08;;;0.20;;
40981;SDS011;26708;50.304;19.028;2022-07-10T13:14:32;1.92;;;0.60;;
40981;SDS011;26708;50.304;19.028;2022-07-10T13:17:44;2.47;;;0.40;;
40981;SDS011;26708;50.304;19.028;2022-07-10T13:20:45;0.73;;;0.30;;
40981;SDS011;26708;50.304;19.028;2022-07-10T13:23:46;1.95;;;0.43;;
40981;SDS011;26708;50.304;19.028;2022-07-10T13:26:48;2.35;;;0.60;;
40981;SDS011;26708;50.304;19.028;2022-07-10T13:29:49;1.98;;;0.60;;
40981;SDS011;26708;50.304;19.028;2022-07-10T13:32:51;0.80;;;0.57;;
40981;SDS011;26708;50.304;19.028;2022-07-10T13:35:51;0.82;;;0.30;;
40981;SDS011;26708;50.304;19.028;2022-07-10T13:38:52;3.03;;;0.50;;
40981;SDS011;26708;50.304;19.028;2022-07-10T13:41:55;0.75;;;0.30;;
40981;SDS011;26708;50.304;19.028;2022-07-10T13:44:56;2.28;;;0.35;;
40981;SDS011;26708;50.304;19.028;2022-07-10T13:47:57;2.92;;;0.43;;
40981;SDS011;26708;50.304;19.028;2022-07-10T13:50:58;0.45;;;0.40;;
40981;SDS011;26708;50.304;19.028;2022-07-10T13:53:59;0.85;;;0.38;;
40981;SDS011;26708;50.304;19.028;2022-07-10T13:56:59;2.30;;;0.40;;
40981;SDS011;26708;50.304;19.028;2022-07-10T14:00:01;2.75;;;0.50;;
40981;SDS011;26708;50.304;19.028;2022-07-10T14:03:12;2.00;;;0.55;;
40981;SDS011;26708;50.304;19.028;2022-07-10T14:06:15;2.20;;;0.57;;
40981;SDS011;26708;50.304;19.028;2022-07-10T14:09:15;2.65;;;0.40;;
40981;SDS011;26708;50.304;19.028;2022-07-10T14:12:16;2.70;;;0.47;;
40981;SDS011;26708;50.304;19.028;2022-07-10T14:15:17;1.35;;;0.40;;
40981;SDS011;26708;50.304;19.028;2022-07-10T14:18:19;0.57;;;0.30;;
40981;SDS011;26708;50.304;19.028;2022-07-10T14:21:39;1.08;;;0.32;;
40981;SDS011;26708;50.304;19.028;2022-07-10T14:24:41;2.38;;;0.50;;
40981;SDS011;26708;50.304;19.028;2022-07-10T14:27:42;1.17;;;0.47;;
40981;SDS011;26708;50.304;19.028;2022-07-10T14:30:42;1.58;;;0.55;;
40981;SDS011;26708;50.304;19.028;2022-07-10T14:33:43;1.50;;;0.28;;
40981;SDS011;26708;50.304;19.028;2022-07-10T14:36:44;2.25;;;0.35;;
40981;SDS011;26708;50.304;19.028;2022-07-10T14:39:45;1.33;;;0.30;;
40981;SDS011;26708;50.304;19.028;2022-07-10T14:42:46;0.65;;;0.30;;
40981;SDS011;26708;50.304;19.028;2022-07-10T14:45:47;2.90;;;0.40;;
40981;SDS011;26708;50.304;19.028;2022-07-10T14:48:48;0.95;;;0.20;;
40981;SDS011;26708;50.304;19.028;2022-07-10T14:51:50;0.90;;;0.52;;
40981;SDS011;26708;50.304;19.028;2022-07-10T14:54:52;2.30;;;0.38;;
40981;SDS011;26708;50.304;19.028;2022-07-10T14:57:52;2.28;;;0.30;;
40981;SDS011;26708;50.304;19.028;2022-07-10T15:00:53;2.58;;;0.20;;
40981;SDS011;26708;50.304;19.028;2022-07-10T15:03:55;1.42;;;0.32;;
40981;SDS011;26708;50.304;19.028;2022-07-10T15:06:58;1.77;;;0.40;;
40981;SDS011;26708;50.304;19.028;2022-07-10T15:09:59;0.85;;;0.20;;
40981;SDS011;26708;50.304;19.028;2022-07-10T15:13:00;3.50;;;0.40;;
40981;SDS011;26708;50.304;19.028;2022-07-10T15:16:05;2.20;;;0.40;;
40981;SDS011;26708;50.304;19.028;2022-07-10T15:19:06;0.20;;;0.20;;
40981;SDS011;26708;50.304;19.028;2022-07-10T15:22:08;0.52;;;0.20;;
40981;SDS011;26708;50.304;19.028;2022-07-10T15:25:09;0.85;;;0.40;;
40981;SDS011;26708;50.304;19.028;2022-07-10T15:28:11;1.75;;;0.50;;
40981;SDS011;26708;50.304;19.028;2022-07-10T15:31:12;5.78;;;0.80;;
40981;SDS011;26708;50.304;19.028;2022-07-10T15:34:13;1.50;;;0.40;;
40981;SDS011;26708;50.304;19.028;2022-07-10T15:37:16;1.52;;;0.43;;
40981;SDS011;26708;50.304;19.028;2022-07-10T15:40:17;2.47;;;0.60;;
40981;SDS011;26708;50.304;19.028;2022-07-10T15:43:17;3.33;;;0.55;;
40981;SDS011;26708;50.304;19.028;2022-07-10T15:46:18;1.33;;;0.20;;
40981;SDS011;26708;50.304;19.028;2022-07-10T15:49:19;4.15;;;0.30;;
40981;SDS011;26708;50.304;19.028;2022-07-10T15:52:20;1.85;;;0.22;;
40981;SDS011;26708;50.304;19.028;2022-07-10T15:55:21;1.30;;;0.30;;
40981;SDS011;26708;50.304;19.028;2022-07-10T15:58:21;1.73;;;0.35;;
40981;SDS011;26708;50.304;19.028;2022-07-10T16:01:22;0.40;;;0.32;;
40981;SDS011;26708;50.304;19.028;2022-07-10T16:04:25;2.70;;;0.30;;
40981;SDS011;26708;50.304;19.028;2022-07-10T16:07:27;1.50;;;0.45;;
40981;SDS011;26708;50.304;19.028;2022-07-10T16:10:27;4.53;;;1.50;;
40981;SDS011;26708;50.304;19.028;2022-07-10T16:13:28;0.43;;;0.32;;
40981;SDS011;26708;50.304;19.028;2022-07-10T16:16:31;1.35;;;0.20;;
40981;SDS011;26708;50.304;19.028;2022-07-10T16:19:31;0.88;;;0.40;;
40981;SDS011;26708;50.304;19.028;2022-07-10T16:22:32;0.75;;;0.40;;
40981;SDS011;26708;50.304;19.028;2022-07-10T16:25:33;0.90;;;0.40;;
40981;SDS011;26708;50.304;19.028;2022-07-10T16:28:53;0.60;;;0.57;;
40981;SDS011;26708;50.304;19.028;2022-07-10T16:31:54;2.83;;;1.00;;
40981;SDS011;26708;50.304;19.028;2022-07-10T16:34:57;2.35;;;1.08;;
40981;SDS011;26708;50.304;19.028;2022-07-10T16:37:59;1.33;;;0.50;;
40981;SDS011;26708;50.304;19.028;2022-07-10T16:41:00;2.58;;;0.82;;
40981;SDS011;26708;50.304;19.028;2022-07-10T16:44:01;1.27;;;0.60;;
40981;SDS011;26708;50.304;19.028;2022-07-10T16:47:02;2.35;;;0.90;;
40981;SDS011;26708;50.304;19.028;2022-07-10T16:50:03;1.55;;;0.82;;
40981;SDS011;26708;50.304;19.028;2022-07-10T16:53:04;1.85;;;0.75;;
40981;SDS011;26708;50.304;19.028;2022-07-10T16:56:05;1.70;;;0.88;;
40981;SDS011;26708;50.304;19.028;2022-07-10T16:59:06;2.95;;;0.70;;
40981;SDS011;26708;50.304;19.028;2022-07-10T17:02:07;1.40;;;0.50;;
40981;SDS011;26708;50.304;19.028;2022-07-10T17:05:08;2.80;;;0.63;;
40981;SDS011;26708;50.304;19.028;2022-07-10T17:08:10;2.67;;;0.50;;
40981;SDS011;26708;50.304;19.028;2022-07-10T17:11:13;2.63;;;0.90;;
40981;SDS011;26708;50.304;19.028;2022-07-10T17:14:14;4.97;;;0.88;;
40981;SDS011;26708;50.304;19.028;2022-07-10T17:17:15;1.48;;;0.90;;
40981;SDS011;26708;50.304;19.028;2022-07-10T17:20:15;1.42;;;0.50;;
40981;SDS011;26708;50.304;19.028;2022-07-10T17:23:16;3.35;;;0.90;;
40981;SDS011;26708;50.304;19.028;2022-07-10T17:26:17;2.42;;;1.08;;
40981;SDS011;26708;50.304;19.028;2022-07-10T17:29:22;3.10;;;1.25;;
40981;SDS011;26708;50.304;19.028;2022-07-10T17:32:22;4.35;;;1.15;;
40981;SDS011;26708;50.304;19.028;2022-07-10T17:35:23;4.35;;;1.20;;
40981;SDS011;26708;50.304;19.028;2022-07-10T17:38:24;2.58;;;0.93;;
40981;SDS011;26708;50.304;19.028;2022-07-10T17:41:25;4.47;;;1.23;;
40981;SDS011;26708;50.304;19.028;2022-07-10T17:44:25;1.13;;;1.00;;
40981;SDS011;26708;50.304;19.028;2022-07-10T17:47:27;2.88;;;1.10;;
40981;SDS011;26708;50.304;19.028;2022-07-10T17:50:28;7.43;;;0.90;;
40981;SDS011;26708;50.304;19.028;2022-07-10T17:53:29;1.92;;;0.82;;
40981;SDS011;26708;50.304;19.028;2022-07-10T17:56:30;2.13;;;1.05;;
40981;SDS011;26708;50.304;19.028;2022-07-10T17:59:31;4.70;;;0.88;;
40981;SDS011;26708;50.304;19.028;2022-07-10T18:02:32;2.50;;;0.80;;
40981;SDS011;26708;50.304;19.028;2022-07-10T18:05:33;2.63;;;0.90;;
40981;SDS011;26708;50.304;19.028;2022-07-10T18:08:34;3.47;;;1.20;;
40981;SDS011;26708;50.304;19.028;2022-07-10T18:11:36;6.00;;;1.48;;
40981;SDS011;26708;50.304;19.028;2022-07-10T18:14:37;3.53;;;1.08;;
40981;SDS011;26708;50.304;19.028;2022-07-10T18:17:38;3.35;;;1.10;;
40981;SDS011;26708;50.304;19.028;2022-07-10T18:20:39;3.25;;;1.30;;